createdAt,value
2019-05-21T00:00:57.615Z,91.41
2019-05-21T00:03:26.117Z,91.66
2019-05-21T00:05:54.831Z,91.69
2019-05-21T00:08:23.559Z,91.50
2019-05-21T00:10:52.217Z,91.53
2019-05-21T00:13:20.922Z,91.51
2019-05-21T00:15:49.551Z,91.54
2019-05-21T00:18:18.055Z,91.96
2019-05-21T00:20:46.610Z,91.87
2019-05-21T00:23:15.357Z,91.50
2019-05-21T00:25:43.985Z,91.74
2019-05-21T00:28:35.359Z,91.89
2019-05-21T00:31:40.234Z,91.94
2019-05-21T00:34:45.382Z,92.07
2019-05-21T00:37:50.060Z,91.58
2019-05-21T00:40:54.950Z,91.73
2019-05-21T00:43:32.686Z,92.01
2019-05-21T00:46:01.141Z,91.91
2019-05-21T00:48:29.859Z,92.07
2019-05-21T00:50:58.490Z,92.17
2019-05-21T00:53:27.238Z,92.18
2019-05-21T00:55:55.868Z,92.59
2019-05-21T00:58:24.601Z,92.60
2019-05-21T01:00:53.236Z,92.67
2019-05-21T01:03:21.756Z,92.37
2019-05-21T01:05:50.298Z,92.53
2019-05-21T01:08:18.986Z,92.53
2019-05-21T01:10:47.984Z,92.48
2019-05-21T01:13:16.414Z,92.20
2019-05-21T01:15:45.090Z,92.38
2019-05-21T01:18:13.720Z,92.40
2019-05-21T01:20:42.223Z,92.63
2019-05-21T01:23:10.781Z,92.56
2019-05-21T01:25:39.510Z,92.54
2019-05-21T01:28:08.164Z,92.46
2019-05-21T01:30:36.912Z,92.31
2019-05-21T01:33:05.539Z,92.24
2019-05-21T01:35:34.316Z,92.40
2019-05-21T01:38:02.910Z,92.43
2019-05-21T01:40:31.359Z,92.53
2019-05-21T01:43:03.187Z,92.34
2019-05-21T01:45:30.199Z,92.46
2019-05-21T01:47:58.915Z,92.63
2019-05-21T01:50:27.561Z,92.91
2019-05-21T01:52:56.284Z,92.86
2019-05-21T01:55:24.936Z,92.57
2019-05-21T01:57:53.729Z,92.60
2019-05-21T02:00:22.377Z,92.72
2019-05-21T02:02:51.305Z,92.82
2019-05-21T02:05:32.136Z,92.98
2019-05-21T02:07:50.252Z,92.97
2019-05-21T02:10:18.965Z,93.11
2019-05-21T02:12:47.634Z,93.19
2019-05-21T02:15:16.403Z,93.35
2019-05-21T02:17:45.021Z,93.46
2019-05-21T02:20:13.667Z,93.24
2019-05-21T02:22:42.327Z,93.36
2019-05-21T02:25:11.350Z,93.43
2019-05-21T02:27:40.017Z,93.32
2019-05-21T02:30:10.292Z,93.25
2019-05-21T02:32:38.729Z,93.09
2019-05-21T02:35:07.932Z,93.10
2019-05-21T02:37:36.645Z,93.23
2019-05-21T02:40:06.843Z,93.15
2019-05-21T02:42:35.533Z,93.27
2019-05-21T02:45:05.762Z,93.37
2019-05-21T02:47:34.410Z,93.31
2019-05-21T02:50:03.824Z,93.44
2019-05-21T02:52:32.457Z,93.37
2019-05-21T02:55:01.152Z,93.47
2019-05-21T02:57:40.241Z,93.51
2019-05-21T03:00:29.473Z,93.49
2019-05-21T03:02:59.863Z,93.20
2019-05-21T03:05:28.723Z,93.42
2019-05-21T03:07:57.415Z,93.31
2019-05-21T03:10:27.112Z,93.39
2019-05-21T03:12:55.706Z,93.45
2019-05-21T03:15:24.429Z,93.47
2019-05-21T03:17:53.100Z,93.54
2019-05-21T03:20:21.734Z,93.53
2019-05-21T03:22:50.465Z,93.41
2019-05-21T03:25:19.169Z,93.33
2019-05-21T03:27:48.061Z,93.35
2019-05-21T03:30:17.448Z,93.35
2019-05-21T03:32:45.946Z,93.33
2019-05-21T03:35:14.663Z,93.39
2019-05-21T03:37:43.146Z,93.44
2019-05-21T03:40:12.421Z,93.43
2019-05-21T03:42:40.869Z,93.42
2019-05-21T03:45:09.908Z,93.55
2019-05-21T03:47:38.515Z,93.51
2019-05-21T03:50:08.172Z,93.60
2019-05-21T03:52:36.861Z,93.37
2019-05-21T03:55:06.520Z,93.40
2019-05-21T03:57:35.163Z,93.37
2019-05-21T04:00:08.406Z,93.32
2019-05-21T04:02:37.123Z,93.36
2019-05-21T04:05:06.704Z,93.20
2019-05-21T04:07:35.407Z,93.26
2019-05-21T04:10:12.515Z,93.11
2019-05-21T04:12:41.090Z,93.10
2019-05-21T04:15:11.493Z,93.11
2019-05-21T04:17:44.594Z,92.89
2019-05-21T04:20:13.305Z,92.90
2019-05-21T04:22:43.677Z,92.98
2019-05-21T04:25:12.201Z,93.27
2019-05-21T04:27:40.976Z,93.15
2019-05-21T04:30:11.407Z,93.39
2019-05-21T04:32:40.078Z,93.47
2019-05-21T04:35:08.788Z,93.59
2019-05-21T04:37:37.477Z,93.67
2019-05-21T04:40:06.242Z,93.72
2019-05-21T04:42:34.819Z,93.79
2019-05-21T04:45:06.077Z,93.79
2019-05-21T04:47:34.623Z,93.65
2019-05-21T04:50:03.431Z,93.43
2019-05-21T04:52:31.986Z,93.40
2019-05-21T04:55:00.718Z,93.35
2019-05-21T04:57:29.359Z,93.38
2019-05-21T04:59:58.083Z,93.35
2019-05-21T05:02:26.734Z,93.30
2019-05-21T05:04:55.471Z,93.41
2019-05-21T05:07:28.034Z,93.67
2019-05-21T05:09:54.443Z,93.67
2019-05-21T05:12:23.012Z,93.47
2019-05-21T05:14:51.820Z,93.44
2019-05-21T05:17:20.392Z,93.20
2019-05-21T05:19:49.073Z,93.14
2019-05-21T05:22:17.803Z,93.24
2019-05-21T05:24:46.429Z,93.27
2019-05-21T05:27:14.950Z,93.18
2019-05-21T05:29:43.497Z,93.26
2019-05-21T05:32:12.227Z,93.26
2019-05-21T05:34:40.709Z,93.28
2019-05-21T05:37:09.309Z,93.25
2019-05-21T05:39:37.944Z,93.28
2019-05-21T05:42:06.660Z,93.17
2019-05-21T05:44:35.351Z,92.99
2019-05-21T05:47:03.995Z,92.88
2019-05-21T05:49:34.385Z,92.81
2019-05-21T05:52:02.909Z,92.75
2019-05-21T05:54:31.646Z,92.84
2019-05-21T05:57:00.274Z,92.48
2019-05-21T05:59:29.028Z,92.32
2019-05-21T06:01:57.922Z,92.10
2019-05-21T06:04:26.438Z,92.00
2019-05-21T06:06:55.055Z,91.82
2019-05-21T06:09:23.709Z,91.40
2019-05-21T06:11:52.497Z,91.01
2019-05-21T06:14:21.077Z,91.10
2019-05-21T06:16:49.808Z,91.15
2019-05-21T06:19:18.470Z,91.01
2019-05-21T06:21:47.189Z,90.96
2019-05-21T06:24:15.825Z,90.38
2019-05-21T06:26:44.636Z,90.28
2019-05-21T06:29:13.192Z,90.28
2019-05-21T06:31:41.882Z,89.41
2019-05-21T06:34:10.613Z,89.91
2019-05-21T06:36:39.247Z,88.27
2019-05-21T06:39:08.516Z,89.26
2019-05-21T06:41:36.966Z,88.42
2019-05-21T06:44:05.825Z,88.42
2019-05-21T06:46:34.536Z,88.09
2019-05-21T06:49:03.045Z,87.60
2019-05-21T06:51:31.831Z,87.56
2019-05-21T06:54:00.366Z,88.11
2019-05-21T06:56:29.171Z,88.63
2019-05-21T06:58:57.739Z,88.55
2019-05-21T07:01:29.285Z,88.56
2019-05-21T07:03:56.942Z,88.62
2019-05-21T07:06:25.852Z,88.63
2019-05-21T07:08:54.324Z,88.49
2019-05-21T07:11:22.805Z,88.76
2019-05-21T07:13:51.379Z,88.79
2019-05-21T07:16:20.068Z,88.57
2019-05-21T07:18:48.775Z,88.50
2019-05-21T07:21:17.441Z,87.95
2019-05-21T07:23:46.183Z,87.63
2019-05-21T07:26:14.878Z,87.34
2019-05-21T07:28:43.562Z,86.84
2019-05-21T07:31:12.181Z,86.79
2019-05-21T07:33:40.923Z,87.19
2019-05-21T07:36:09.376Z,86.14
2019-05-21T07:38:51.828Z,85.20
2019-05-21T07:41:08.208Z,85.72
2019-05-21T07:43:36.890Z,86.25
2019-05-21T07:46:05.579Z,86.59
2019-05-21T07:48:34.213Z,85.37
2019-05-21T07:51:03.172Z,84.75
2019-05-21T07:53:31.853Z,84.90
2019-05-21T07:56:00.582Z,84.00
2019-05-21T07:58:29.300Z,82.71
2019-05-21T08:01:01.294Z,82.71
2019-05-21T08:03:28.365Z,82.03
2019-05-21T08:05:56.926Z,81.52
2019-05-21T08:08:25.752Z,81.36
2019-05-21T08:10:54.230Z,81.36
2019-05-21T08:13:22.689Z,81.65
2019-05-21T08:15:51.330Z,81.52
2019-05-21T08:18:19.983Z,82.60
2019-05-21T08:20:48.934Z,80.29
2019-05-21T08:23:17.387Z,79.31
2019-05-21T08:25:46.087Z,79.10
2019-05-21T08:28:14.744Z,79.19
2019-05-21T08:30:43.510Z,77.26
2019-05-21T08:33:12.095Z,78.99
2019-05-21T08:35:40.902Z,79.15
2019-05-21T08:38:09.465Z,78.31
2019-05-21T08:40:55.026Z,77.78
2019-05-21T08:43:22.071Z,74.80
2019-05-21T08:45:49.655Z,76.00
2019-05-21T08:48:18.198Z,75.36
2019-05-21T08:50:46.721Z,72.90
2019-05-21T08:53:15.518Z,73.74
2019-05-21T08:55:44.103Z,76.14
2019-05-21T08:58:13.063Z,77.90
2019-05-21T09:00:41.583Z,74.38
2019-05-21T09:03:10.269Z,75.25
2019-05-21T09:05:38.833Z,73.83
2019-05-21T09:08:07.442Z,73.81
2019-05-21T09:10:38.984Z,73.81
2019-05-21T09:13:07.650Z,75.64
2019-05-21T09:15:36.136Z,75.13
2019-05-21T09:18:04.785Z,77.85
2019-05-21T09:20:33.523Z,75.09
2019-05-21T09:23:02.094Z,78.09
2019-05-21T09:25:30.843Z,76.93
2019-05-21T09:27:59.529Z,75.22
2019-05-21T09:30:28.228Z,73.11
2019-05-21T09:32:56.886Z,75.37
2019-05-21T09:35:25.524Z,77.02
2019-05-21T09:37:54.099Z,77.51
2019-05-21T09:40:24.259Z,79.54
2019-05-21T09:42:52.938Z,79.45
2019-05-21T09:45:22.381Z,78.76
2019-05-21T09:47:51.396Z,79.94
2019-05-21T09:50:20.691Z,79.49
2019-05-21T09:52:49.201Z,80.94
2019-05-21T09:55:17.916Z,81.49
2019-05-21T09:57:53.948Z,81.97
2019-05-21T10:00:44.679Z,81.80
2019-05-21T10:03:15.022Z,81.26
2019-05-21T10:05:43.553Z,80.36
2019-05-21T10:08:12.236Z,80.08
2019-05-21T10:10:41.030Z,80.20
2019-05-21T10:13:09.635Z,81.12
2019-05-21T10:15:38.348Z,80.86
2019-05-21T10:18:07.119Z,80.47
2019-05-21T10:20:35.847Z,79.33
2019-05-21T10:23:04.421Z,80.76
2019-05-21T10:25:33.143Z,80.96
2019-05-21T10:28:01.720Z,80.91
2019-05-21T10:30:30.552Z,81.30
2019-05-21T10:32:59.098Z,82.87
2019-05-21T10:35:27.849Z,83.87
2019-05-21T10:37:56.401Z,83.50
2019-05-21T10:40:24.998Z,83.77
2019-05-21T10:42:53.570Z,83.31
2019-05-21T10:45:22.245Z,84.24
2019-05-21T10:47:51.028Z,83.04
2019-05-21T10:50:20.215Z,82.85
2019-05-21T10:52:48.937Z,82.70
2019-05-21T10:55:17.826Z,82.70
2019-05-21T10:57:46.287Z,83.67
2019-05-21T11:00:23.067Z,84.05
2019-05-21T11:02:55.102Z,83.75
2019-05-21T11:05:28.712Z,83.80
2019-05-21T11:07:55.031Z,84.04
2019-05-21T11:10:23.691Z,84.28
2019-05-21T11:12:52.262Z,83.97
2019-05-21T11:15:21.580Z,84.95
2019-05-21T11:18:09.208Z,85.09
2019-05-21T11:20:20.614Z,84.93
2019-05-21T11:22:49.089Z,84.96
2019-05-21T11:25:17.775Z,85.29
2019-05-21T11:27:46.282Z,85.23
2019-05-21T11:30:15.075Z,84.65
2019-05-21T11:32:43.570Z,84.53
2019-05-21T11:35:13.757Z,84.52
2019-05-21T11:37:42.464Z,85.06
2019-05-21T11:40:11.643Z,84.89
2019-05-21T11:42:40.240Z,85.02
2019-05-21T11:45:09.481Z,85.38
2019-05-21T11:47:38.283Z,85.56
2019-05-21T11:50:08.998Z,85.74
2019-05-21T11:52:37.747Z,85.74
2019-05-21T11:55:06.924Z,85.80
2019-05-21T11:57:35.411Z,85.98
2019-05-21T12:00:07.270Z,85.71
2019-05-21T12:02:35.747Z,85.56
2019-05-21T12:05:06.380Z,85.42
2019-05-21T12:07:35.095Z,85.30
2019-05-21T12:10:06.733Z,84.48
2019-05-21T12:12:35.411Z,84.87
2019-05-21T12:15:06.630Z,84.61
2019-05-21T12:17:35.276Z,84.28
2019-05-21T12:20:06.151Z,84.44
2019-05-21T12:22:34.831Z,84.44
2019-05-21T12:25:04.089Z,84.41
2019-05-21T12:27:32.797Z,84.61
2019-05-21T12:30:01.431Z,84.31
2019-05-21T12:32:30.113Z,84.45
2019-05-21T12:34:58.601Z,84.24
2019-05-21T12:37:27.168Z,84.57
2019-05-21T12:39:55.688Z,84.76
2019-05-21T12:42:24.239Z,84.02
2019-05-21T12:44:53.060Z,84.02
2019-05-21T12:47:21.616Z,84.67
2019-05-21T12:49:50.352Z,84.21
2019-05-21T12:52:19.045Z,84.47
2019-05-21T12:54:47.749Z,85.19
2019-05-21T12:57:16.358Z,85.50
2019-05-21T12:59:45.104Z,85.50
2019-05-21T13:02:13.729Z,85.62
2019-05-21T13:04:42.457Z,85.63
2019-05-21T13:07:11.407Z,85.74
2019-05-21T13:09:39.899Z,85.88
2019-05-21T13:12:08.574Z,85.99
2019-05-21T13:14:37.146Z,86.03
2019-05-21T13:17:06.126Z,85.79
2019-05-21T13:19:34.572Z,86.12
2019-05-21T13:22:03.342Z,86.17
2019-05-21T13:24:31.913Z,86.28
2019-05-21T13:27:00.633Z,86.28
2019-05-21T13:29:29.282Z,86.69
2019-05-21T13:31:57.785Z,85.91
2019-05-21T13:34:26.340Z,86.38
2019-05-21T13:36:55.079Z,86.32
2019-05-21T13:39:25.708Z,86.75
2019-05-21T13:41:54.042Z,86.65
2019-05-21T13:44:22.666Z,86.37
2019-05-21T13:46:51.355Z,86.54
2019-05-21T13:49:20.010Z,86.55
2019-05-21T13:51:48.720Z,86.88
2019-05-21T13:54:17.366Z,86.72
2019-05-21T13:56:46.083Z,86.88
2019-05-21T13:59:14.971Z,86.78
2019-05-21T14:01:43.456Z,86.91
2019-05-21T14:04:12.391Z,87.22
2019-05-21T14:06:40.908Z,87.31
2019-05-21T14:09:09.604Z,87.19
2019-05-21T14:11:38.225Z,87.30
2019-05-21T14:14:07.365Z,87.60
2019-05-21T14:16:35.881Z,87.76
2019-05-21T14:19:04.650Z,87.42
2019-05-21T14:21:33.233Z,87.12
2019-05-21T14:24:01.966Z,87.15
2019-05-21T14:26:30.585Z,87.41
2019-05-21T14:28:59.311Z,87.50
2019-05-21T14:31:27.969Z,86.98
2019-05-21T14:33:56.696Z,86.39
2019-05-21T14:36:25.280Z,86.93
2019-05-21T14:38:54.015Z,87.01
2019-05-21T14:41:22.532Z,87.23
2019-05-21T14:43:51.106Z,87.02
2019-05-21T14:46:19.834Z,87.10
2019-05-21T14:48:48.532Z,87.32
2019-05-21T14:51:17.202Z,86.97
2019-05-21T14:53:46.388Z,87.34
2019-05-21T14:56:14.893Z,87.19
2019-05-21T14:58:43.502Z,86.87
2019-05-21T15:01:12.242Z,86.52
2019-05-21T15:03:40.875Z,86.38
2019-05-21T15:06:09.668Z,86.24
2019-05-21T15:08:38.255Z,86.05
2019-05-21T15:11:06.982Z,86.06
2019-05-21T15:13:35.618Z,85.74
2019-05-21T15:16:04.583Z,85.82
2019-05-21T15:18:33.033Z,85.61
2019-05-21T15:21:09.579Z,85.52
2019-05-21T15:23:38.335Z,84.97
2019-05-21T15:26:07.403Z,84.71
2019-05-21T15:28:36.071Z,84.75
2019-05-21T15:31:04.791Z,85.11
2019-05-21T15:33:33.434Z,84.81
2019-05-21T15:36:02.085Z,85.14
2019-05-21T15:38:48.754Z,84.71
2019-05-21T15:41:10.527Z,84.88
2019-05-21T15:43:32.220Z,84.95
2019-05-21T15:46:01.355Z,84.97
2019-05-21T15:48:29.872Z,84.38
2019-05-21T15:50:58.501Z,84.22
2019-05-21T15:53:26.998Z,84.08
2019-05-21T15:55:55.569Z,83.76
2019-05-21T15:58:26.779Z,84.08
2019-05-21T16:00:54.577Z,84.44
2019-05-21T16:03:23.632Z,84.70
2019-05-21T16:05:52.221Z,85.01
2019-05-21T16:08:20.840Z,85.03
2019-05-21T16:10:49.614Z,85.36
2019-05-21T16:13:18.212Z,85.98
2019-05-21T16:15:46.937Z,86.37
2019-05-21T16:18:15.586Z,86.54
2019-05-21T16:20:44.293Z,86.80
2019-05-21T16:23:12.953Z,86.89
2019-05-21T16:25:41.682Z,86.75
2019-05-21T16:28:10.321Z,86.99
2019-05-21T16:30:39.056Z,87.11
2019-05-21T16:33:07.780Z,87.21
2019-05-21T16:35:43.730Z,86.87
2019-05-21T16:38:12.715Z,87.38
2019-05-21T16:40:41.316Z,87.56
2019-05-21T16:43:09.810Z,87.77
2019-05-21T16:45:38.536Z,87.77
2019-05-21T16:48:15.852Z,87.96
2019-05-21T16:50:44.836Z,88.05
2019-05-21T16:53:13.409Z,87.68
2019-05-21T16:55:42.149Z,86.91
2019-05-21T16:58:11.418Z,86.86
2019-05-21T17:00:39.933Z,86.60
2019-05-21T17:03:08.485Z,86.04
2019-05-21T17:05:37.020Z,85.54
2019-05-21T17:08:05.690Z,85.52
2019-05-21T17:10:34.266Z,85.54
2019-05-21T17:13:02.999Z,85.54
2019-05-21T17:15:31.717Z,85.82
2019-05-21T17:18:00.355Z,85.84
2019-05-21T17:20:29.096Z,85.50
2019-05-21T17:22:57.801Z,85.81
2019-05-21T17:25:26.463Z,85.84
2019-05-21T17:27:55.133Z,86.05
2019-05-21T17:30:23.824Z,85.90
2019-05-21T17:32:52.439Z,86.11
2019-05-21T17:35:21.173Z,86.06
2019-05-21T17:37:49.813Z,86.09
2019-05-21T17:40:18.681Z,85.70
2019-05-21T17:42:47.253Z,85.84
2019-05-21T17:45:15.925Z,85.83
2019-05-21T17:47:44.629Z,85.98
2019-05-21T17:50:13.934Z,86.01
2019-05-21T17:52:42.538Z,86.10
2019-05-21T17:55:11.567Z,85.99
2019-05-21T17:57:40.310Z,86.06
2019-05-21T18:00:10.455Z,86.10
2019-05-21T18:02:40.136Z,86.00
2019-05-21T18:05:10.579Z,85.74
2019-05-21T18:07:39.401Z,85.62
2019-05-21T18:10:10.708Z,85.36
2019-05-21T18:12:39.845Z,85.38
2019-05-21T18:15:12.421Z,85.46
2019-05-21T18:17:42.921Z,85.39
2019-05-21T18:20:15.093Z,85.27
2019-05-21T18:22:43.680Z,84.77
2019-05-21T18:25:13.935Z,84.73
2019-05-21T18:27:42.675Z,84.51
2019-05-21T18:30:13.114Z,84.42
2019-05-21T18:32:42.556Z,84.63
2019-05-21T18:35:12.039Z,84.29
2019-05-21T18:37:40.747Z,84.45
2019-05-21T18:40:09.933Z,84.50
2019-05-21T18:42:38.562Z,84.42
2019-05-21T18:45:08.097Z,84.19
2019-05-21T18:47:36.726Z,84.06
2019-05-21T18:50:08.246Z,84.05
2019-05-21T18:52:36.927Z,84.02
2019-05-21T18:55:09.209Z,84.15
2019-05-21T18:57:37.992Z,84.23
2019-05-21T19:00:08.400Z,84.19
2019-05-21T19:02:37.262Z,84.23
2019-05-21T19:05:07.350Z,84.17
2019-05-21T19:07:36.082Z,83.78
2019-05-21T19:10:09.665Z,84.11
2019-05-21T19:12:39.075Z,84.19
2019-05-21T19:15:09.190Z,84.38
2019-05-21T19:17:38.360Z,84.24
2019-05-21T19:20:09.345Z,84.32
2019-05-21T19:22:38.187Z,84.36
2019-05-21T19:25:08.250Z,84.34
2019-05-21T19:27:36.891Z,84.06
2019-05-21T19:30:09.889Z,84.09
2019-05-21T19:32:38.691Z,84.18
2019-05-21T19:35:07.898Z,84.04
2019-05-21T19:37:36.582Z,84.07
2019-05-21T19:40:06.749Z,84.09
2019-05-21T19:42:35.806Z,84.19
2019-05-21T19:45:06.975Z,84.18
2019-05-21T19:47:35.613Z,84.36
2019-05-21T19:50:06.789Z,84.49
2019-05-21T19:52:35.509Z,84.64
2019-05-21T19:55:08.096Z,84.76
2019-05-21T19:57:38.619Z,85.04
2019-05-21T20:00:08.541Z,84.77
2019-05-21T20:02:37.566Z,84.79
2019-05-21T20:05:08.012Z,84.46
2019-05-21T20:07:38.858Z,84.73
2019-05-21T20:10:09.064Z,84.83
2019-05-21T20:12:38.051Z,84.67
2019-05-21T20:15:09.776Z,84.82
2019-05-21T20:17:39.921Z,84.93
2019-05-21T20:20:10.878Z,84.88
2019-05-21T20:22:41.499Z,84.93
2019-05-21T20:25:11.614Z,85.09
2019-05-21T20:27:40.638Z,85.11
2019-05-21T20:30:13.049Z,85.76
2019-05-21T20:32:43.152Z,86.01
2019-05-21T20:35:14.529Z,86.27
2019-05-21T20:37:43.901Z,86.46
2019-05-21T20:40:13.902Z,86.60
2019-05-21T20:42:43.235Z,86.63
2019-05-21T20:45:14.544Z,86.39
2019-05-21T20:47:44.832Z,86.28
2019-05-21T20:50:15.907Z,86.30
2019-05-21T20:52:45.304Z,86.30
2019-05-21T20:55:17.425Z,86.30
2019-05-21T20:57:45.351Z,85.98
2019-05-21T21:00:16.444Z,86.00
2019-05-21T21:02:45.838Z,86.05
2019-05-21T21:05:15.156Z,86.27
2019-05-21T21:07:44.167Z,86.44
2019-05-21T21:10:14.072Z,86.17
2019-05-21T21:12:44.296Z,86.26
2019-05-21T21:15:14.798Z,85.73
2019-05-21T21:17:44.126Z,85.33
2019-05-21T21:20:13.247Z,84.74
2019-05-21T21:22:41.827Z,84.75
2019-05-21T21:25:12.325Z,84.09
2019-05-21T21:27:41.927Z,83.83
2019-05-21T21:30:11.615Z,83.83
2019-05-21T21:32:40.366Z,83.66
2019-05-21T21:35:11.061Z,83.56
2019-05-21T21:37:39.812Z,83.09
2019-05-21T21:40:10.586Z,83.05
2019-05-21T21:42:40.345Z,83.43
2019-05-21T21:45:09.887Z,83.40
2019-05-21T21:47:39.995Z,83.35
2019-05-21T21:50:10.729Z,83.36
2019-05-21T21:52:40.103Z,83.22
2019-05-21T21:55:08.930Z,83.22
2019-05-21T21:57:37.568Z,83.01
2019-05-21T22:00:27.181Z,83.21
2019-05-21T22:02:57.504Z,82.95
2019-05-21T22:05:26.152Z,82.78
2019-05-21T22:07:55.260Z,82.80
2019-05-21T22:10:24.670Z,82.93
2019-05-21T22:12:53.807Z,82.88
2019-05-21T22:15:22.376Z,82.99
2019-05-21T22:17:51.370Z,82.97
2019-05-21T22:20:21.285Z,82.96
2019-05-21T22:22:49.983Z,83.09
2019-05-21T22:25:19.205Z,82.88
2019-05-21T22:27:47.966Z,83.13
2019-05-21T22:30:18.616Z,83.13
2019-05-21T22:32:47.177Z,83.12
2019-05-21T22:35:16.090Z,82.51
2019-05-21T22:37:44.594Z,82.08
2019-05-21T22:40:14.483Z,81.80
2019-05-21T22:42:43.206Z,81.77
2019-05-21T22:45:12.828Z,82.30
2019-05-21T22:47:41.397Z,82.05
2019-05-21T22:50:11.281Z,81.70
2019-05-21T22:52:39.740Z,81.99
2019-05-21T22:55:08.596Z,81.91
2019-05-21T22:57:37.221Z,81.89
2019-05-21T23:00:08.230Z,81.89
2019-05-21T23:02:38.593Z,81.94
2019-05-21T23:05:07.194Z,82.20
2019-05-21T23:07:35.861Z,82.09
2019-05-21T23:10:11.000Z,82.27
2019-05-21T23:12:40.156Z,82.45
2019-05-21T23:15:23.951Z,82.63
2019-05-21T23:17:40.728Z,82.55
2019-05-21T23:20:12.464Z,82.11
2019-05-21T23:22:43.217Z,82.30
2019-05-21T23:25:12.645Z,81.83
2019-05-21T23:27:41.761Z,82.04
2019-05-21T23:30:12.553Z,82.35
2019-05-21T23:32:42.249Z,82.51
2019-05-21T23:35:14.404Z,82.73
2019-05-21T23:37:44.817Z,82.62
2019-05-21T23:40:15.758Z,82.73
2019-05-21T23:42:44.662Z,82.89
2019-05-21T23:45:15.562Z,83.17
2019-05-21T23:47:44.182Z,83.11
2019-05-21T23:50:15.333Z,83.37
2019-05-21T23:52:44.962Z,83.57
2019-05-21T23:55:13.554Z,83.61
2019-05-21T23:57:42.828Z,83.58
